Portada
METAR-TAF:

METAR-TAF

Aeroports :

Mount Vernon Airport

Mount Vernon, Illinois, Estats Units d'Amèrica

latitud: 38-19N, longitud: 088-52W, altitud: 146 m

Observació

L'informe es va fer fa 59 minuts, a les 11:56 UTC
Vent 4 kt del Nord
Temperatura 14°C
Humitat 82%
Pressió 1023 hPa
Visibilitat: 16.1 km
Cel clar

METAR: KMVN 301156Z AUTO 01004KT 10SM CLR 14/11 A3020 RMK AO2 SLP228 70004 T01440106 10144 20106 53015

Hora: 07:55 (12:55 UTC)

Pronòstic

L'informe es va fer fa 1 hora i 35 minuts, a les 11:20 UTC
Pronòstic vàlid del 30 a les 12 UTC al 31 a les 12 UTC
Vent 5 kt del Nord
Visibilitat: 10 km
Escasses núvols a una alçada de 25000 ft
A partir de les 31 a les 0100 UTC
Vent 3 kt amb direcció variable
Visibilitat: 10 km
Escasses núvols a una alçada de 25000 ft

TAF: KMVN 301120Z 3012/3112 36005KT P6SM FEW250 FM310100 VRB03KT P6SM FEW250

Observacions i pronòstics meteorològics de més de 4000 aeroports (METAR i TAF).

Les estacions disponibles són els punts grocs i vermells al mapa.

Posi el ratolí al punt desitjat per veure el nom de l'estació.

Feu clic per veure les observacions i els pronòstics meteorològics.

Per canviar el mapa: feu clic els botons verds amb una creu de color negre per apropar; al botó verd amb un guió per allunyar la imatge; o en les fletxes verdes per a mapes adjacents.


METAR-TAF: